PPDPC SBDN-SDUD
Flight info
| Callsign | PPDPC |
|---|---|
| Flight time | N/A |
| Altitude | 23000 |
| Route | DCT BRU DCT 1957S81859W/N0200A055 VFR DCT |
| Aircraft | PC12/L-SDFGRWY/S |
Departure
| Time | 2026-04-25 17:48 |
|---|---|
| Airport | Presidente Prudente Airport (SBDN) |
Arrival
| Time | N/A |
|---|---|
| Airport | Usina Santa Adélia Airport (SDUD) |
| Time | Latitude | Longitude | Altitude | Speed | Heading |
|---|---|---|---|---|---|
| 2026-04-25 17:48 | -22.19265 | -51.34162 | 7383 ft | 169 kts | 106° |
| 2026-04-25 17:48 | -22.19199 | -51.32916 | 7688 ft | 170 kts | 63° |
| 2026-04-25 17:48 | -22.18618 | -51.31803 | 7954 ft | 172 kts | 65° |
| 2026-04-25 17:49 | -22.18321 | -51.30575 | 8292 ft | 172 kts | 86° |
| 2026-04-25 17:49 | -22.18360 | -51.29285 | 8633 ft | 173 kts | 94° |
| 2026-04-25 17:49 | -22.18448 | -51.27990 | 8969 ft | 173 kts | 95° |
| 2026-04-25 17:49 | -22.18550 | -51.26691 | 9280 ft | 174 kts | 96° |
| 2026-04-25 17:50 | -22.18657 | -51.25383 | 9617 ft | 175 kts | 96° |
| 2026-04-25 17:50 | -22.18764 | -51.24073 | 9920 ft | 176 kts | 96° |
| 2026-04-25 17:50 | -22.18872 | -51.22751 | 10208 ft | 177 kts | 96° |
| 2026-04-25 17:50 | -22.18978 | -51.21441 | 10507 ft | 177 kts | 96° |
| 2026-04-25 17:51 | -22.19087 | -51.20110 | 10812 ft | 178 kts | 96° |
| 2026-04-25 17:51 | -22.19195 | -51.18775 | 11107 ft | 179 kts | 97° |
| 2026-04-25 17:51 | -22.19304 | -51.17436 | 11402 ft | 180 kts | 97° |
| 2026-04-25 17:51 | -22.19413 | -51.16090 | 11683 ft | 180 kts | 97° |
| 2026-04-25 17:52 | -22.19524 | -51.14737 | 11950 ft | 181 kts | 97° |
| 2026-04-25 17:52 | -22.19597 | -51.13838 | 12157 ft | 181 kts | 97° |
| 2026-04-25 17:52 | -22.19745 | -51.12017 | 12516 ft | 182 kts | 97° |
| 2026-04-25 17:52 | -22.19855 | -51.10654 | 12782 ft | 182 kts | 98° |
| 2026-04-25 17:53 | -22.19966 | -51.09288 | 13041 ft | 183 kts | 98° |
| 2026-04-25 17:53 | -22.20078 | -51.07913 | 13304 ft | 184 kts | 98° |
| 2026-04-25 17:53 | -22.20188 | -51.06554 | 13581 ft | 184 kts | 98° |
| 2026-04-25 17:53 | -22.20300 | -51.05174 | 13809 ft | 185 kts | 98° |
| 2026-04-25 17:54 | -22.20413 | -51.03787 | 14048 ft | 186 kts | 98° |
| 2026-04-25 17:54 | -22.20527 | -51.02390 | 14251 ft | 188 kts | 97° |
| 2026-04-25 17:54 | -22.20641 | -51.00982 | 14464 ft | 189 kts | 97° |